createdAt,value
2023-01-19T00:00:51.815Z,5.80
2023-01-19T00:03:18.644Z,5.80
2023-01-19T00:05:46.562Z,5.80
2023-01-19T00:08:16.820Z,5.80
2023-01-19T00:10:48.010Z,5.80
2023-01-19T00:13:15.556Z,5.80
2023-01-19T00:15:42.292Z,5.80
2023-01-19T00:18:10.624Z,5.80
2023-01-19T00:20:38.536Z,5.80
2023-01-19T00:23:05.214Z,5.80
2023-01-19T00:25:32.088Z,5.80
2023-01-19T00:28:01.443Z,5.80
2023-01-19T00:30:28.437Z,5.80
2023-01-19T00:32:55.526Z,5.80
2023-01-19T00:35:22.209Z,5.80
2023-01-19T00:37:48.838Z,5.70
2023-01-19T00:40:15.663Z,5.70
2023-01-19T00:42:44.459Z,5.80
2023-01-19T00:45:18.595Z,5.80
2023-01-19T00:47:45.886Z,5.80
2023-01-19T00:50:14.215Z,5.80
2023-01-19T00:52:41.621Z,5.70
2023-01-19T00:55:09.587Z,5.80
2023-01-19T00:57:36.444Z,5.80
2023-01-19T01:00:06.514Z,5.80
2023-01-19T01:02:33.826Z,5.80
2023-01-19T01:05:02.899Z,5.80
2023-01-19T01:07:30.510Z,5.70
2023-01-19T01:09:57.544Z,5.80
2023-01-19T01:12:24.445Z,5.80
2023-01-19T01:14:51.104Z,5.70
2023-01-19T01:17:17.792Z,5.70
2023-01-19T01:19:44.486Z,5.70
2023-01-19T01:22:11.133Z,5.70
2023-01-19T01:24:38.311Z,5.80
2023-01-19T01:27:04.914Z,5.70
2023-01-19T01:29:31.517Z,5.70
2023-01-19T01:31:58.236Z,5.80
2023-01-19T01:34:24.911Z,5.80
2023-01-19T01:36:51.760Z,5.70
2023-01-19T01:39:18.435Z,5.70
2023-01-19T01:41:45.020Z,5.80
2023-01-19T01:44:49.587Z,5.70
2023-01-19T01:47:46.961Z,5.70
2023-01-19T01:50:21.215Z,5.70
2023-01-19T01:53:06.593Z,5.70
2023-01-19T01:55:37.985Z,5.70
2023-01-19T01:58:05.735Z,5.70
2023-01-19T02:00:50.871Z,5.70
2023-01-19T02:03:17.806Z,5.80
2023-01-19T02:05:45.898Z,5.80
2023-01-19T02:08:38.847Z,5.70
2023-01-19T02:11:25.403Z,5.70
2023-01-19T02:13:52.103Z,5.70
2023-01-19T02:16:18.870Z,5.70
2023-01-19T02:18:45.739Z,5.70
2023-01-19T02:21:27.564Z,5.70
2023-01-19T02:23:58.955Z,5.70
2023-01-19T02:26:30.755Z,5.70
2023-01-19T02:29:00.398Z,5.70
2023-01-19T02:31:29.832Z,5.70
2023-01-19T02:33:57.449Z,5.70
2023-01-19T02:36:28.850Z,5.70
2023-01-19T02:38:58.223Z,5.70
2023-01-19T02:41:28.558Z,5.70
2023-01-19T02:43:56.880Z,5.70
2023-01-19T02:46:23.726Z,5.70
2023-01-19T02:48:50.365Z,5.70
2023-01-19T02:51:28.010Z,5.70
2023-01-19T02:54:03.972Z,5.70
2023-01-19T02:56:53.849Z,5.70
2023-01-19T02:59:30.068Z,5.70
2023-01-19T03:02:29.003Z,5.70
2023-01-19T03:05:50.209Z,5.70
2023-01-19T03:08:47.699Z,5.70
2023-01-19T03:11:15.256Z,5.70
2023-01-19T03:13:53.869Z,5.70
2023-01-19T03:16:36.631Z,5.70
2023-01-19T03:19:10.920Z,5.70
2023-01-19T03:21:40.575Z,5.70
2023-01-19T03:24:10.014Z,5.70
2023-01-19T03:26:43.093Z,5.70
2023-01-19T03:29:12.949Z,5.70
2023-01-19T03:31:43.302Z,5.70
2023-01-19T03:34:13.580Z,5.70
2023-01-19T03:36:50.947Z,5.60
2023-01-19T03:39:27.879Z,5.60
2023-01-19T03:41:58.740Z,5.60
2023-01-19T03:44:28.561Z,5.60
2023-01-19T03:46:57.202Z,5.60
2023-01-19T03:49:23.995Z,5.60
2023-01-19T03:51:50.877Z,5.60
2023-01-19T03:54:17.720Z,5.60
2023-01-19T03:56:44.930Z,5.60
2023-01-19T03:59:11.685Z,5.60
2023-01-19T04:01:38.393Z,5.60
2023-01-19T04:04:05.068Z,5.60
2023-01-19T04:06:32.205Z,5.60
2023-01-19T04:08:58.873Z,5.60
2023-01-19T04:11:25.666Z,5.60
2023-01-19T04:13:52.312Z,5.60
2023-01-19T04:16:21.248Z,5.60
2023-01-19T04:18:48.661Z,5.60
2023-01-19T04:21:15.502Z,5.60
2023-01-19T04:23:44.326Z,5.60
2023-01-19T04:26:10.991Z,5.60
2023-01-19T04:28:38.289Z,5.60
2023-01-19T04:31:06.401Z,5.60
2023-01-19T04:33:33.577Z,5.60
2023-01-19T04:36:00.258Z,5.60
2023-01-19T04:38:27.114Z,5.60
2023-01-19T04:40:54.649Z,5.60
2023-01-19T04:43:22.906Z,5.60
2023-01-19T04:45:50.356Z,5.60
2023-01-19T04:48:18.570Z,5.60
2023-01-19T04:50:45.669Z,5.60
2023-01-19T04:53:13.801Z,5.60
2023-01-19T04:55:40.920Z,5.60
2023-01-19T04:58:07.785Z,5.60
2023-01-19T05:00:34.565Z,5.60
2023-01-19T05:03:01.919Z,5.60
2023-01-19T05:05:29.195Z,5.60
2023-01-19T05:07:56.169Z,5.60
2023-01-19T05:10:23.848Z,5.60
2023-01-19T05:12:51.341Z,5.60
2023-01-19T05:15:18.117Z,5.60
2023-01-19T05:17:44.777Z,5.60
2023-01-19T05:20:14.942Z,5.60
2023-01-19T05:22:42.752Z,5.50
2023-01-19T05:25:09.759Z,5.50
2023-01-19T05:27:37.323Z,5.60
2023-01-19T05:30:05.670Z,5.50
2023-01-19T05:32:32.821Z,5.50
2023-01-19T05:34:59.522Z,5.50
2023-01-19T05:37:26.221Z,5.50
2023-01-19T05:39:53.648Z,5.50
2023-01-19T05:42:20.798Z,5.50
2023-01-19T05:44:47.524Z,5.50
2023-01-19T05:47:14.222Z,5.50
2023-01-19T05:49:40.878Z,5.50
2023-01-19T05:52:07.640Z,5.50
2023-01-19T05:54:34.515Z,5.50
2023-01-19T05:57:06.081Z,5.50
2023-01-19T05:59:32.671Z,5.50
2023-01-19T06:02:00.088Z,5.50
2023-01-19T06:04:27.023Z,5.50
2023-01-19T06:06:53.692Z,5.50
2023-01-19T06:09:20.374Z,5.50
2023-01-19T06:11:47.524Z,5.50
2023-01-19T06:14:14.224Z,5.50
2023-01-19T06:16:40.906Z,5.50
2023-01-19T06:19:07.892Z,5.50
2023-01-19T06:21:34.793Z,5.50
2023-01-19T06:24:01.744Z,5.50
2023-01-19T06:26:28.542Z,5.50
2023-01-19T06:28:55.576Z,5.40
2023-01-19T06:31:22.576Z,5.50
2023-01-19T06:33:49.928Z,5.50
2023-01-19T06:36:16.617Z,5.50
2023-01-19T06:38:43.213Z,5.50
2023-01-19T06:41:09.885Z,5.50
2023-01-19T06:43:36.659Z,5.40
2023-01-19T06:46:04.085Z,5.40
2023-01-19T06:48:30.884Z,5.40
2023-01-19T06:50:59.549Z,5.40
2023-01-19T06:53:28.426Z,5.40
2023-01-19T06:56:03.086Z,5.40
2023-01-19T06:58:31.730Z,5.40
2023-01-19T07:01:16.846Z,5.40
2023-01-19T07:03:45.499Z,5.40
2023-01-19T07:06:12.822Z,5.30
2023-01-19T07:08:40.064Z,5.30
2023-01-19T07:11:23.192Z,5.30
2023-01-19T07:13:56.040Z,5.30
2023-01-19T07:16:23.473Z,5.30
2023-01-19T07:18:50.408Z,5.30
2023-01-19T07:21:17.457Z,5.30
2023-01-19T07:23:44.080Z,5.30
2023-01-19T07:26:10.977Z,5.30
2023-01-19T07:28:37.674Z,5.30
2023-01-19T07:31:04.570Z,5.30
2023-01-19T07:33:31.253Z,5.30
2023-01-19T07:35:58.438Z,5.30
2023-01-19T07:38:25.302Z,5.30
2023-01-19T07:40:51.931Z,5.30
2023-01-19T07:43:18.698Z,5.20
2023-01-19T07:45:45.626Z,5.20
2023-01-19T07:48:12.338Z,5.20
2023-01-19T07:50:38.966Z,5.20
2023-01-19T07:53:07.433Z,5.20
2023-01-19T07:55:34.135Z,5.20
2023-01-19T07:58:00.973Z,5.20
2023-01-19T08:00:27.687Z,5.20
2023-01-19T08:03:00.160Z,5.20
2023-01-19T08:05:28.980Z,5.20
2023-01-19T08:07:59.256Z,5.20
2023-01-19T08:10:27.888Z,5.20
2023-01-19T08:12:55.556Z,5.20
2023-01-19T08:15:24.161Z,5.20
2023-01-19T08:18:09.288Z,5.20
2023-01-19T08:20:36.497Z,5.20
2023-01-19T08:23:05.578Z,5.20
2023-01-19T08:25:34.344Z,5.20
2023-01-19T08:28:01.196Z,5.20
2023-01-19T08:30:28.220Z,5.20
2023-01-19T08:32:58.208Z,5.20
2023-01-19T08:35:25.147Z,5.20
2023-01-19T08:37:51.801Z,5.20
2023-01-19T08:40:18.538Z,5.20
2023-01-19T08:42:45.598Z,5.20
2023-01-19T08:45:12.445Z,5.20
2023-01-19T08:47:39.192Z,5.20
2023-01-19T08:50:06.297Z,5.20
2023-01-19T08:52:32.967Z,5.20
2023-01-19T08:55:00.586Z,5.20
2023-01-19T08:57:27.789Z,5.20
2023-01-19T08:59:54.355Z,5.20
2023-01-19T09:02:21.129Z,5.20
2023-01-19T09:04:47.847Z,5.20
2023-01-19T09:07:14.466Z,5.20
2023-01-19T09:09:43.532Z,5.20
2023-01-19T09:12:10.255Z,5.20
2023-01-19T09:14:36.841Z,5.20
2023-01-19T09:17:03.901Z,5.30
2023-01-19T09:19:30.585Z,5.30
2023-01-19T09:21:59.164Z,5.30
2023-01-19T09:24:25.826Z,5.30
2023-01-19T09:26:52.412Z,5.30
2023-01-19T09:29:19.041Z,5.30
2023-01-19T09:31:45.765Z,5.30
2023-01-19T09:34:12.830Z,5.30
2023-01-19T09:36:40.028Z,5.40
2023-01-19T09:39:06.818Z,5.40
2023-01-19T09:41:36.249Z,5.40
2023-01-19T09:44:03.855Z,5.50
2023-01-19T09:46:40.582Z,5.60
2023-01-19T09:49:14.599Z,5.60
2023-01-19T09:51:46.770Z,5.60
2023-01-19T09:54:25.443Z,5.70
2023-01-19T09:56:53.670Z,5.70
2023-01-19T09:59:25.211Z,5.80
2023-01-19T10:01:59.639Z,5.90
2023-01-19T10:04:41.472Z,5.90
2023-01-19T10:07:29.506Z,6.00
2023-01-19T10:10:24.623Z,6.00
2023-01-19T10:13:12.822Z,6.10
2023-01-19T10:16:01.167Z,6.10
2023-01-19T10:18:34.961Z,6.20
2023-01-19T10:21:05.545Z,6.30
2023-01-19T10:23:41.263Z,6.30
2023-01-19T10:26:16.251Z,6.40
2023-01-19T10:28:44.655Z,6.40
2023-01-19T10:31:12.443Z,6.50
2023-01-19T10:33:39.420Z,6.40
2023-01-19T10:36:07.237Z,6.50
2023-01-19T10:38:35.359Z,6.60
2023-01-19T10:41:06.858Z,6.60
2023-01-19T10:43:36.624Z,6.60
2023-01-19T10:46:17.991Z,6.70
2023-01-19T10:48:47.960Z,6.80
2023-01-19T10:51:14.674Z,6.90
2023-01-19T10:53:52.515Z,6.90
2023-01-19T10:56:30.990Z,7.00
2023-01-19T10:58:59.827Z,7.10
2023-01-19T11:01:28.356Z,7.10
2023-01-19T11:04:00.082Z,7.20
2023-01-19T11:06:29.025Z,7.40
2023-01-19T11:09:20.013Z,7.50
2023-01-19T11:11:50.636Z,7.50
2023-01-19T11:14:23.656Z,7.70
2023-01-19T11:16:55.548Z,7.80
2023-01-19T11:19:33.124Z,7.80
2023-01-19T11:22:33.138Z,7.90
2023-01-19T11:25:05.407Z,8.00
2023-01-19T11:27:35.779Z,8.00
2023-01-19T11:30:09.903Z,8.00
2023-01-19T11:32:38.989Z,7.90
2023-01-19T11:35:33.489Z,8.00
2023-01-19T11:38:12.318Z,7.90
2023-01-19T11:40:40.401Z,8.00
2023-01-19T11:43:12.828Z,8.00
2023-01-19T11:45:39.943Z,8.00
2023-01-19T11:48:11.046Z,8.00
2023-01-19T11:50:41.131Z,7.90
2023-01-19T11:53:20.023Z,8.00
2023-01-19T11:55:57.085Z,8.00
2023-01-19T11:58:24.620Z,7.90
2023-01-19T12:01:17.060Z,8.00
2023-01-19T12:03:54.707Z,8.00
2023-01-19T12:06:55.148Z,7.90
2023-01-19T12:09:35.139Z,8.00
2023-01-19T12:12:06.316Z,8.00
2023-01-19T12:14:52.819Z,8.00
2023-01-19T12:17:29.287Z,8.00
2023-01-19T12:20:24.865Z,8.00
2023-01-19T12:23:14.141Z,8.10
2023-01-19T12:25:43.678Z,8.10
2023-01-19T12:28:13.721Z,8.10
2023-01-19T12:30:40.439Z,8.10
2023-01-19T12:33:40.084Z,8.20
2023-01-19T12:36:09.542Z,8.20
2023-01-19T12:38:44.978Z,8.30
2023-01-19T12:41:20.528Z,8.20
2023-01-19T12:43:48.731Z,8.20
2023-01-19T12:46:31.744Z,8.30
2023-01-19T12:49:43.272Z,8.30
2023-01-19T12:52:30.985Z,8.40
2023-01-19T12:55:01.850Z,8.50
2023-01-19T12:57:34.082Z,8.50
2023-01-19T13:00:05.523Z,8.60
2023-01-19T13:02:42.054Z,8.60
2023-01-19T13:05:11.672Z,8.70
2023-01-19T13:08:03.058Z,8.60
2023-01-19T13:11:13.934Z,8.60
2023-01-19T13:13:41.066Z,8.80
2023-01-19T13:16:22.555Z,8.80
2023-01-19T13:18:58.103Z,8.80
2023-01-19T13:21:33.671Z,9.00
2023-01-19T13:24:02.819Z,8.90
2023-01-19T13:26:33.368Z,9.00
2023-01-19T13:29:25.213Z,9.00
2023-01-19T13:31:54.867Z,9.10
2023-01-19T13:34:24.950Z,9.20
2023-01-19T13:36:54.082Z,9.20
2023-01-19T13:39:32.131Z,9.20
2023-01-19T13:42:03.721Z,9.20
2023-01-19T13:44:36.193Z,9.30
2023-01-19T13:47:04.449Z,9.30
2023-01-19T13:49:35.961Z,9.40
2023-01-19T13:52:22.620Z,9.50
2023-01-19T13:54:53.574Z,9.50
2023-01-19T13:57:27.809Z,9.50
2023-01-19T14:00:12.884Z,9.60
2023-01-19T14:02:40.935Z,9.60
2023-01-19T14:05:31.561Z,9.60
2023-01-19T14:08:04.166Z,9.60
2023-01-19T14:10:31.378Z,9.60
2023-01-19T14:13:02.796Z,9.50
2023-01-19T14:15:31.922Z,9.50
2023-01-19T14:18:18.747Z,9.50
2023-01-19T14:21:03.572Z,9.50
2023-01-19T14:23:52.435Z,9.60
2023-01-19T14:26:37.483Z,9.50
2023-01-19T14:29:10.351Z,9.50
2023-01-19T14:31:49.062Z,9.60
2023-01-19T14:34:34.650Z,9.60
2023-01-19T14:37:03.311Z,9.50
2023-01-19T14:39:33.375Z,9.60
2023-01-19T14:42:04.111Z,9.50
2023-01-19T14:44:40.729Z,9.50
2023-01-19T14:47:29.489Z,9.50
2023-01-19T14:50:00.645Z,9.50
2023-01-19T14:52:34.903Z,9.60
2023-01-19T14:55:06.640Z,9.60
2023-01-19T14:57:37.930Z,9.50
2023-01-19T15:00:18.773Z,9.50
2023-01-19T15:02:46.762Z,9.50
2023-01-19T15:05:14.217Z,9.40
2023-01-19T15:07:44.315Z,9.40
2023-01-19T15:10:23.040Z,9.40
2023-01-19T15:12:53.162Z,9.40
2023-01-19T15:15:28.260Z,9.40
2023-01-19T15:17:56.243Z,9.40
2023-01-19T15:20:23.813Z,9.40
2023-01-19T15:22:50.555Z,9.40
2023-01-19T15:25:22.400Z,9.30
2023-01-19T15:27:49.221Z,9.00
2023-01-19T15:30:33.716Z,9.20
2023-01-19T15:33:00.387Z,9.30
2023-01-19T15:35:27.227Z,9.20
2023-01-19T15:37:53.975Z,9.20
2023-01-19T15:40:35.838Z,9.20
2023-01-19T15:43:02.538Z,9.20
2023-01-19T15:45:35.015Z,9.20
2023-01-19T15:48:07.126Z,9.20
2023-01-19T15:50:36.532Z,9.20
2023-01-19T15:53:03.598Z,9.10
2023-01-19T15:55:30.412Z,9.20
2023-01-19T15:58:01.723Z,9.10
2023-01-19T16:00:29.881Z,9.10
2023-01-19T16:02:56.651Z,9.10
2023-01-19T16:05:30.574Z,9.00
2023-01-19T16:08:04.293Z,9.00
2023-01-19T16:10:30.929Z,9.00
2023-01-19T16:12:57.528Z,9.00
2023-01-19T16:15:25.447Z,9.00
2023-01-19T16:17:52.087Z,8.90
2023-01-19T16:20:19.963Z,8.90
2023-01-19T16:22:46.611Z,8.90
2023-01-19T16:25:13.260Z,8.80
2023-01-19T16:27:39.851Z,8.80
2023-01-19T16:30:07.177Z,8.70
2023-01-19T16:32:35.121Z,8.70
2023-01-19T16:35:01.864Z,8.70
2023-01-19T16:37:28.818Z,8.70
2023-01-19T16:39:55.528Z,8.60
2023-01-19T16:42:22.245Z,8.60
2023-01-19T16:44:48.867Z,8.60
2023-01-19T16:47:15.497Z,8.50
2023-01-19T16:49:42.135Z,8.50
2023-01-19T16:52:09.457Z,8.50
2023-01-19T16:54:37.930Z,8.40
2023-01-19T16:57:05.839Z,8.40
2023-01-19T16:59:32.689Z,8.40
2023-01-19T17:01:59.433Z,8.40
2023-01-19T17:04:27.306Z,8.40
2023-01-19T17:06:54.890Z,8.30
2023-01-19T17:09:21.823Z,8.30
2023-01-19T17:11:48.429Z,8.20
2023-01-19T17:14:22.619Z,8.20
2023-01-19T17:16:49.701Z,8.20
2023-01-19T17:19:18.773Z,8.20
2023-01-19T17:21:46.943Z,8.10
2023-01-19T17:24:13.610Z,8.10
2023-01-19T17:26:40.678Z,8.00
2023-01-19T17:29:09.823Z,7.90
2023-01-19T17:31:37.352Z,8.00
2023-01-19T17:34:04.802Z,8.00
2023-01-19T17:36:32.440Z,8.00
2023-01-19T17:39:00.855Z,7.90
2023-01-19T17:41:32.476Z,7.90
2023-01-19T17:44:02.903Z,7.80
2023-01-19T17:46:30.029Z,7.80
2023-01-19T17:49:04.353Z,7.80
2023-01-19T17:51:31.767Z,7.80
2023-01-19T17:53:58.971Z,7.70
2023-01-19T17:56:29.988Z,7.70
2023-01-19T17:58:57.862Z,7.70
2023-01-19T18:01:27.507Z,7.70
2023-01-19T18:03:54.721Z,7.70
2023-01-19T18:06:21.706Z,7.70
2023-01-19T18:08:49.477Z,7.60
2023-01-19T18:11:18.676Z,7.60
2023-01-19T18:13:48.190Z,7.60
2023-01-19T18:16:18.270Z,7.60
2023-01-19T18:18:44.892Z,7.50
2023-01-19T18:21:13.766Z,7.50
2023-01-19T18:23:43.342Z,7.50
2023-01-19T18:26:11.941Z,7.50
2023-01-19T18:28:38.549Z,7.50
2023-01-19T18:31:10.301Z,7.50
2023-01-19T18:33:37.289Z,7.40
2023-01-19T18:36:04.504Z,7.40
2023-01-19T18:38:31.636Z,7.40
2023-01-19T18:41:06.847Z,7.40
2023-01-19T18:43:34.286Z,7.40
2023-01-19T18:46:00.942Z,7.30
2023-01-19T18:48:27.827Z,7.30
2023-01-19T18:50:54.851Z,7.30
2023-01-19T18:53:22.409Z,7.30
2023-01-19T18:55:54.608Z,7.20
2023-01-19T18:58:21.629Z,7.30
2023-01-19T19:00:48.859Z,7.20
2023-01-19T19:03:15.647Z,7.20
2023-01-19T19:05:42.501Z,7.20
2023-01-19T19:08:09.423Z,7.20
2023-01-19T19:10:36.476Z,7.20
2023-01-19T19:13:03.426Z,7.10
2023-01-19T19:15:32.369Z,7.10
2023-01-19T19:17:59.628Z,7.10
2023-01-19T19:20:26.437Z,7.10
2023-01-19T19:22:53.110Z,7.10
2023-01-19T19:25:19.723Z,7.10
2023-01-19T19:27:53.666Z,7.00
2023-01-19T19:30:21.314Z,7.00
2023-01-19T19:32:57.287Z,7.00
2023-01-19T19:35:24.753Z,7.00
2023-01-19T19:37:53.748Z,7.00
2023-01-19T19:40:20.352Z,6.90
2023-01-19T19:42:47.029Z,6.90
2023-01-19T19:45:14.876Z,6.90
2023-01-19T19:47:43.101Z,6.90
2023-01-19T19:50:11.638Z,6.90
2023-01-19T19:52:40.318Z,6.90
2023-01-19T19:55:09.160Z,6.80
2023-01-19T19:57:36.269Z,6.80
2023-01-19T20:00:05.199Z,6.80
2023-01-19T20:02:32.259Z,6.80
2023-01-19T20:04:59.041Z,6.80
2023-01-19T20:07:25.742Z,6.80
2023-01-19T20:09:55.128Z,6.80
2023-01-19T20:12:21.874Z,6.70
2023-01-19T20:14:48.761Z,6.70
2023-01-19T20:17:15.672Z,6.70
2023-01-19T20:19:43.797Z,6.70
2023-01-19T20:22:10.555Z,6.70
2023-01-19T20:24:37.245Z,6.70
2023-01-19T20:27:04.063Z,6.60
2023-01-19T20:29:30.795Z,6.60
2023-01-19T20:31:57.591Z,6.60
2023-01-19T20:34:28.073Z,6.60
2023-01-19T20:36:54.985Z,6.60
2023-01-19T20:39:23.554Z,6.60
2023-01-19T20:41:51.421Z,6.60
2023-01-19T20:44:23.659Z,6.60
2023-01-19T20:46:50.682Z,6.50
2023-01-19T20:49:17.594Z,6.50
2023-01-19T20:51:47.038Z,6.50
2023-01-19T20:54:17.645Z,6.50
2023-01-19T20:56:44.520Z,6.50
2023-01-19T20:59:12.369Z,6.50
2023-01-19T21:01:40.229Z,6.50
2023-01-19T21:04:07.704Z,6.40
2023-01-19T21:06:34.548Z,6.40
2023-01-19T21:09:01.327Z,6.40
2023-01-19T21:11:28.480Z,6.40
2023-01-19T21:13:58.084Z,6.40
2023-01-19T21:16:27.841Z,6.40
2023-01-19T21:18:54.921Z,6.30
2023-01-19T21:21:30.414Z,6.30
2023-01-19T21:23:59.372Z,6.30
2023-01-19T21:26:26.234Z,6.30
2023-01-19T21:28:52.948Z,6.30
2023-01-19T21:31:22.763Z,6.30
2023-01-19T21:33:53.585Z,6.30
2023-01-19T21:36:21.260Z,6.20
2023-01-19T21:38:48.166Z,6.20
2023-01-19T21:41:16.328Z,6.20
2023-01-19T21:43:43.295Z,6.20
2023-01-19T21:46:18.314Z,6.20
2023-01-19T21:48:46.022Z,6.20
2023-01-19T21:51:13.347Z,6.10
2023-01-19T21:53:40.383Z,6.10
2023-01-19T21:56:09.477Z,6.10
2023-01-19T21:58:36.516Z,6.10
2023-01-19T22:01:06.699Z,6.10
2023-01-19T22:03:33.481Z,6.10
2023-01-19T22:06:05.749Z,6.10
2023-01-19T22:08:32.714Z,6.00
2023-01-19T22:11:19.576Z,6.00
2023-01-19T22:13:46.768Z,6.00
2023-01-19T22:16:16.783Z,6.00
2023-01-19T22:18:46.092Z,6.00
2023-01-19T22:21:18.858Z,6.00
2023-01-19T22:23:49.672Z,6.00
2023-01-19T22:26:16.735Z,5.90
2023-01-19T22:28:43.424Z,5.90
2023-01-19T22:31:15.433Z,5.90
2023-01-19T22:33:43.181Z,5.90
2023-01-19T22:36:21.754Z,5.90
2023-01-19T22:39:00.466Z,5.90
2023-01-19T22:41:32.997Z,5.90
2023-01-19T22:44:02.167Z,5.80
2023-01-19T22:46:31.606Z,5.80
2023-01-19T22:48:59.028Z,5.80
2023-01-19T22:51:26.947Z,5.80
2023-01-19T22:53:53.730Z,5.80
2023-01-19T22:56:26.213Z,5.80
2023-01-19T22:58:53.740Z,5.80
2023-01-19T23:01:34.380Z,5.80
2023-01-19T23:04:02.745Z,5.70
2023-01-19T23:06:31.325Z,5.70
2023-01-19T23:09:00.437Z,5.70
2023-01-19T23:11:30.552Z,5.70
2023-01-19T23:13:58.035Z,5.70
2023-01-19T23:16:25.152Z,5.60
2023-01-19T23:18:56.300Z,5.60
2023-01-19T23:21:25.638Z,5.60
2023-01-19T23:24:03.316Z,5.60
2023-01-19T23:26:31.101Z,5.60
2023-01-19T23:29:00.557Z,5.60
2023-01-19T23:31:32.577Z,5.50
2023-01-19T23:34:01.979Z,5.50
2023-01-19T23:36:30.936Z,5.50
2023-01-19T23:39:00.162Z,5.50
2023-01-19T23:41:29.213Z,5.50
2023-01-19T23:43:56.073Z,5.50
2023-01-19T23:46:22.898Z,5.50
2023-01-19T23:48:50.035Z,5.40
2023-01-19T23:51:25.137Z,5.50
2023-01-19T23:53:52.077Z,5.40
2023-01-19T23:56:24.742Z,5.40
2023-01-19T23:58:56.597Z,5.40
